Time,TemperatureF,DewpointF,PressureIn,WindDirection,WindDirectionDegrees,WindSpeedMPH,WindSpeedGustMPH,Humidity,HourlyPrecipIn,Conditions,Clouds,dailyrainin,SoftwareType,DateUTC
2013-04-21 00:04:00,28.4,24.0,30.50,NNW,342,0.0,0.0,82,0.00,,,0.00,weatherlink.com 1.10,2013-04-21 04:04:00,
2013-04-21 00:19:00,28.1,24.0,30.50,NNW,342,0.0,0.0,84,0.00,,,0.00,weatherlink.com 1.10,2013-04-21 04:19:00,
2013-04-21 00:34:00,27.7,24.0,30.50,NNW,342,0.0,0.0,85,0.00,,,0.00,weatherlink.com 1.10,2013-04-21 04:34:00,
2013-04-21 00:49:00,27.4,24.0,30.50,NNW,342,0.0,0.0,86,0.00,,,0.00,weatherlink.com 1.10,2013-04-21 04:49:00,
2013-04-21 01:04:00,27.1,24.0,30.51,NNW,342,0.0,0.0,86,0.00,,,0.00,weatherlink.com 1.10,2013-04-21 05:04:00,
2013-04-21 01:19:00,26.8,24.0,30.51,NNW,342,0.0,0.0,87,0.00,,,0.00,weatherlink.com 1.10,2013-04-21 05:19:00,
2013-04-21 01:34:00,26.5,23.0,30.51,NNW,342,0.0,0.0,87,0.00,,,0.00,weatherlink.com 1.10,2013-04-21 05:34:00,
2013-04-21 01:50:00,26.2,23.0,30.52,NNW,342,0.0,0.0,88,0.00,,,0.00,weatherlink.com 1.10,2013-04-21 05:50:00,
2013-04-21 02:05:00,26.1,23.0,30.52,NNW,342,0.0,1.0,89,0.00,,,0.00,weatherlink.com 1.10,2013-04-21 06:05:00,
2013-04-21 02:20:00,25.9,23.0,30.53,NNW,342,0.0,0.0,89,0.00,,,0.00,weatherlink.com 1.10,2013-04-21 06:20:00,
2013-04-21 02:35:00,25.7,23.0,30.53,NNW,342,0.0,0.0,90,0.00,,,0.00,weatherlink.com 1.10,2013-04-21 06:35:00,
2013-04-21 02:50:00,25.4,23.0,30.53,NNW,342,0.0,0.0,90,0.00,,,0.00,weatherlink.com 1.10,2013-04-21 06:50:00,
2013-04-21 03:05:00,25.2,23.0,30.53,NNW,342,0.0,0.0,90,0.00,,,0.00,weatherlink.com 1.10,2013-04-21 07:05:00,
2013-04-21 03:20:00,24.9,22.0,30.54,NNW,342,0.0,1.0,90,0.00,,,0.00,weatherlink.com 1.10,2013-04-21 07:20:00,
2013-04-21 03:35:00,24.7,22.0,30.55,NNW,342,0.0,0.0,90,0.00,,,0.00,weatherlink.com 1.10,2013-04-21 07:35:00,
2013-04-21 03:50:00,24.4,22.0,30.55,NNW,342,0.0,0.0,90,0.00,,,0.00,weatherlink.com 1.10,2013-04-21 07:50:00,
2013-04-21 04:05:00,24.2,22.0,30.56,NNW,342,0.0,0.0,90,0.00,,,0.00,weatherlink.com 1.10,2013-04-21 08:05:00,
2013-04-21 04:20:00,24.0,22.0,30.56,NNW,342,0.0,0.0,91,0.00,,,0.00,weatherlink.com 1.10,2013-04-21 08:20:00,
2013-04-21 04:35:00,23.7,22.0,30.56,NNW,342,0.0,0.0,91,0.00,,,0.00,weatherlink.com 1.10,2013-04-21 08:35:00,
2013-04-21 04:50:00,23.5,21.0,30.57,NNW,342,0.0,0.0,91,0.00,,,0.00,weatherlink.com 1.10,2013-04-21 08:50:00,
2013-04-21 05:05:00,23.4,22.0,30.57,NNW,342,0.0,1.0,92,0.00,,,0.00,weatherlink.com 1.10,2013-04-21 09:05:00,
2013-04-21 05:20:00,23.3,21.0,30.58,NNW,342,0.0,1.0,92,0.00,,,0.00,weatherlink.com 1.10,2013-04-21 09:20:00,
2013-04-21 05:35:00,23.3,21.0,30.58,NNW,342,0.0,0.0,92,0.00,,,0.00,weatherlink.com 1.10,2013-04-21 09:35:00,
2013-04-21 05:50:00,23.1,21.0,30.59,NNW,342,0.0,0.0,92,0.00,,,0.00,weatherlink.com 1.10,2013-04-21 09:50:00,
2013-04-21 06:05:00,23.0,21.0,30.59,NNW,342,0.0,0.0,93,0.00,,,0.00,weatherlink.com 1.10,2013-04-21 10:05:00,
2013-04-21 06:20:00,22.9,21.0,30.60,NNW,342,0.0,0.0,93,0.00,,,0.00,weatherlink.com 1.10,2013-04-21 10:20:00,
2013-04-21 06:35:00,22.7,21.0,30.60,NNW,342,0.0,0.0,93,0.00,,,0.00,weatherlink.com 1.10,2013-04-21 10:35:00,
2013-04-21 06:50:00,22.4,21.0,30.61,NNW,342,0.0,0.0,92,0.00,,,0.00,weatherlink.com 1.10,2013-04-21 10:50:00,
2013-04-21 07:05:00,22.4,21.0,30.62,NNW,342,0.0,0.0,93,0.00,,,0.00,weatherlink.com 1.10,2013-04-21 11:05:00,
2013-04-21 07:20:00,22.5,21.0,30.63,NNW,342,0.0,0.0,93,0.00,,,0.00,weatherlink.com 1.10,2013-04-21 11:20:00,
2013-04-21 07:35:00,22.6,21.0,30.64,NNW,342,0.0,0.0,93,0.00,,,0.00,weatherlink.com 1.10,2013-04-21 11:35:00,
2013-04-21 07:50:00,23.3,22.0,30.64,NNW,342,0.0,0.0,94,0.00,,,0.00,weatherlink.com 1.10,2013-04-21 11:50:00,
2013-04-21 08:05:00,27.0,26.0,30.65,NNW,342,1.0,2.0,96,0.00,,,0.00,weatherlink.com 1.10,2013-04-21 12:05:00,
2013-04-21 08:20:00,30.1,28.0,30.66,NNE,23,0.0,2.0,91,0.00,,,0.00,weatherlink.com 1.10,2013-04-21 12:20:00,
2013-04-21 08:36:00,31.7,28.0,30.67,NE,49,0.0,2.0,86,0.00,,,0.00,weatherlink.com 1.10,2013-04-21 12:36:00,
2013-04-21 08:51:00,33.5,28.0,30.66,SE,126,0.0,4.0,81,0.00,,,0.00,weatherlink.com 1.10,2013-04-21 12:51:00,
2013-04-21 09:06:00,35.2,29.0,30.67,SSE,166,1.0,4.0,78,0.00,,,0.00,weatherlink.com 1.10,2013-04-21 13:06:00,
2013-04-21 09:21:00,36.0,27.0,30.67,SSE,157,1.0,4.0,71,0.00,,,0.00,weatherlink.com 1.10,2013-04-21 13:21:00,
2013-04-21 09:36:00,36.8,27.0,30.67,SE,136,1.0,8.0,67,0.00,,,0.00,weatherlink.com 1.10,2013-04-21 13:36:00,
2013-04-21 09:51:00,37.5,26.0,30.67,SW,226,3.0,9.0,63,0.00,,,0.00,weatherlink.com 1.10,2013-04-21 13:51:00,
2013-04-21 10:06:00,37.4,24.0,30.67,SSW,194,2.0,9.0,60,0.00,,,0.00,weatherlink.com 1.10,2013-04-21 14:06:00,
2013-04-21 10:21:00,38.6,27.0,30.67,SSW,213,2.0,6.0,63,0.00,,,0.00,weatherlink.com 1.10,2013-04-21 14:21:00,
2013-04-21 10:36:00,39.5,25.0,30.67,ESE,115,2.0,8.0,57,0.00,,,0.00,weatherlink.com 1.10,2013-04-21 14:36:00,
2013-04-21 10:51:00,40.0,24.0,30.67,SE,144,3.0,6.0,54,0.00,,,0.00,weatherlink.com 1.10,2013-04-21 14:51:00,
2013-04-21 11:06:00,40.1,26.0,30.67,ESE,106,2.0,5.0,57,0.00,,,0.00,weatherlink.com 1.10,2013-04-21 15:06:00,
2013-04-21 11:21:00,41.3,26.0,30.67,WSW,244,1.0,8.0,55,0.00,,,0.00,weatherlink.com 1.10,2013-04-21 15:21:00,
2013-04-21 11:36:00,41.3,27.0,30.67,South,171,1.0,9.0,58,0.00,,,0.00,weatherlink.com 1.10,2013-04-21 15:36:00,
2013-04-21 11:51:00,42.0,24.0,30.66,WSW,244,3.0,6.0,50,0.00,,,0.00,weatherlink.com 1.10,2013-04-21 15:51:00,
2013-04-21 12:06:00,42.4,26.0,30.66,ESE,109,5.0,8.0,52,0.00,,,0.00,weatherlink.com 1.10,2013-04-21 16:06:00,
2013-04-21 12:21:00,43.4,25.0,30.66,WSW,252,5.0,10.0,49,0.00,,,0.00,weatherlink.com 1.10,2013-04-21 16:21:00,
2013-04-21 12:36:00,43.5,25.0,30.66,WSW,254,4.0,10.0,49,0.00,,,0.00,weatherlink.com 1.10,2013-04-21 16:36:00,
2013-04-21 12:51:00,44.7,26.0,30.65,SE,140,3.0,8.0,49,0.00,,,0.00,weatherlink.com 1.10,2013-04-21 16:51:00,
2013-04-21 13:06:00,45.3,29.0,30.64,East,92,2.0,8.0,53,0.00,,,0.00,weatherlink.com 1.10,2013-04-21 17:06:00,
2013-04-21 13:21:00,45.5,26.0,30.63,SW,215,2.0,7.0,47,0.00,,,0.00,weatherlink.com 1.10,2013-04-21 17:21:00,
2013-04-21 13:36:00,46.0,27.0,30.63,SW,216,2.0,6.0,47,0.00,,,0.00,weatherlink.com 1.10,2013-04-21 17:36:00,
2013-04-21 13:51:00,46.6,28.0,30.62,South,178,3.0,10.0,48,0.00,,,0.00,weatherlink.com 1.10,2013-04-21 17:51:00,
2013-04-21 14:06:00,45.7,25.0,30.62,SSE,147,4.0,8.0,45,0.00,,,0.00,weatherlink.com 1.10,2013-04-21 18:06:00,
2013-04-21 14:21:00,46.8,27.0,30.61,SE,136,3.0,8.0,47,0.00,,,0.00,weatherlink.com 1.10,2013-04-21 18:21:00,
2013-04-21 14:36:00,46.9,29.0,30.61,SSE,166,1.0,6.0,50,0.00,,,0.00,weatherlink.com 1.10,2013-04-21 18:36:00,
2013-04-21 14:51:00,47.6,29.0,30.61,ESE,120,2.0,13.0,48,0.00,,,0.00,weatherlink.com 1.10,2013-04-21 18:51:00,
2013-04-21 15:06:00,47.8,30.0,30.60,SW,228,3.0,6.0,50,0.00,,,0.00,weatherlink.com 1.10,2013-04-21 19:06:00,
2013-04-21 15:21:00,47.4,29.0,30.59,SSW,200,4.0,8.0,50,0.00,,,0.00,weatherlink.com 1.10,2013-04-21 19:21:00,
2013-04-21 15:36:00,48.0,28.0,30.59,NE,49,3.0,9.0,47,0.00,,,0.00,weatherlink.com 1.10,2013-04-21 19:36:00,
2013-04-21 15:52:00,48.9,30.0,30.57,SSE,154,6.0,9.0,48,0.00,,,0.00,weatherlink.com 1.10,2013-04-21 19:52:00,
2013-04-21 16:07:00,47.6,30.0,30.57,East,94,6.0,7.0,50,0.00,,,0.00,weatherlink.com 1.10,2013-04-21 20:07:00,
2013-04-21 16:22:00,48.2,30.0,30.56,South,181,1.0,9.0,49,0.00,,,0.00,weatherlink.com 1.10,2013-04-21 20:22:00,
2013-04-21 16:37:00,48.2,29.0,30.55,SSE,164,2.0,6.0,48,0.00,,,0.00,weatherlink.com 1.10,2013-04-21 20:37:00,
2013-04-21 16:52:00,48.3,29.0,30.55,ESE,117,3.0,8.0,47,0.00,,,0.00,weatherlink.com 1.10,2013-04-21 20:52:00,
2013-04-21 17:07:00,48.0,29.0,30.55,SSW,194,1.0,6.0,49,0.00,,,0.00,weatherlink.com 1.10,2013-04-21 21:07:00,
2013-04-21 17:22:00,48.1,30.0,30.54,SSW,211,2.0,7.0,50,0.00,,,0.00,weatherlink.com 1.10,2013-04-21 21:22:00,
2013-04-21 17:37:00,48.3,30.0,30.54,NNE,33,2.0,6.0,49,0.00,,,0.00,weatherlink.com 1.10,2013-04-21 21:37:00,
2013-04-21 17:52:00,48.1,31.0,30.54,SSW,213,1.0,6.0,51,0.00,,,0.00,weatherlink.com 1.10,2013-04-21 21:52:00,
2013-04-21 18:07:00,47.4,30.0,30.54,East,93,2.0,9.0,51,0.00,,,0.00,weatherlink.com 1.10,2013-04-21 22:07:00,
2013-04-21 18:22:00,47.1,28.0,30.54,East,80,3.0,10.0,48,0.00,,,0.00,weatherlink.com 1.10,2013-04-21 22:22:00,
2013-04-21 18:37:00,47.0,29.0,30.54,WSW,250,2.0,8.0,49,0.00,,,0.00,weatherlink.com 1.10,2013-04-21 22:37:00,
2013-04-21 18:52:00,46.3,28.0,30.53,ESE,115,1.0,7.0,50,0.00,,,0.00,weatherlink.com 1.10,2013-04-21 22:52:00,
2013-04-21 19:07:00,45.8,27.0,30.53,SW,227,1.0,6.0,49,0.00,,,0.00,weatherlink.com 1.10,2013-04-21 23:07:00,
2013-04-21 19:22:00,45.5,28.0,30.53,South,184,1.0,5.0,51,0.00,,,0.00,weatherlink.com 1.10,2013-04-21 23:22:00,
2013-04-21 19:37:00,45.0,28.0,30.53,SSE,157,1.0,6.0,51,0.00,,,0.00,weatherlink.com 1.10,2013-04-21 23:37:00,
2013-04-21 19:52:00,44.2,27.0,30.54,WSW,252,2.0,7.0,51,0.00,,,0.00,weatherlink.com 1.10,2013-04-21 23:52:00,
2013-04-21 20:07:00,43.5,26.0,30.53,ESE,117,2.0,6.0,51,0.00,,,0.00,weatherlink.com 1.10,2013-04-22 00:07:00,
2013-04-21 20:22:00,42.8,25.0,30.54,ESE,121,1.0,6.0,49,0.00,,,0.00,weatherlink.com 1.10,2013-04-22 00:22:00,
2013-04-21 20:37:00,42.0,23.0,30.53,ESE,120,0.0,6.0,48,0.00,,,0.00,weatherlink.com 1.10,2013-04-22 00:37:00,
2013-04-21 20:53:00,41.5,23.0,30.53,SE,137,2.0,8.0,48,0.00,,,0.00,weatherlink.com 1.10,2013-04-22 00:53:00,
2013-04-21 21:07:00,41.0,23.0,30.54,SSW,208,1.0,6.0,49,0.00,,,0.00,weatherlink.com 1.10,2013-04-22 01:07:00,
2013-04-21 21:22:00,40.5,23.0,30.54,SSE,153,1.0,5.0,49,0.00,,,0.00,weatherlink.com 1.10,2013-04-22 01:22:00,
2013-04-21 21:37:00,40.0,23.0,30.54,SSW,194,2.0,3.0,51,0.00,,,0.00,weatherlink.com 1.10,2013-04-22 01:37:00,
2013-04-21 21:52:00,39.4,23.0,30.54,East,97,3.0,4.0,53,0.00,,,0.00,weatherlink.com 1.10,2013-04-22 01:52:00,
2013-04-21 22:07:00,38.8,23.0,30.53,South,185,2.0,3.0,54,0.00,,,0.00,weatherlink.com 1.10,2013-04-22 02:07:00,
2013-04-21 22:22:00,38.6,25.0,30.53,SSW,213,1.0,5.0,58,0.00,,,0.00,weatherlink.com 1.10,2013-04-22 02:22:00,
2013-04-21 22:37:00,38.3,25.0,30.53,ESE,113,1.0,5.0,60,0.00,,,0.00,weatherlink.com 1.10,2013-04-22 02:37:00,
2013-04-21 22:52:00,37.9,25.0,30.53,South,169,4.0,5.0,61,0.00,,,0.00,weatherlink.com 1.10,2013-04-22 02:52:00,
2013-04-21 23:07:00,37.5,25.0,30.53,ESE,117,3.0,5.0,61,0.00,,,0.00,weatherlink.com 1.10,2013-04-22 03:07:00,
2013-04-21 23:22:00,37.1,24.0,30.53,ENE,70,4.0,8.0,60,0.00,,,0.00,weatherlink.com 1.10,2013-04-22 03:22:00,
2013-04-21 23:37:00,36.7,24.0,30.53,ESE,114,2.0,5.0,60,0.00,,,0.00,weatherlink.com 1.10,2013-04-22 03:37:00,
2013-04-21 23:52:00,36.2,23.0,30.52,SSW,201,1.0,3.0,60,0.00,,,0.00,weatherlink.com 1.10,2013-04-22 03:52:00,